createdAt,value
2022-10-13T00:01:13.130Z,15.70
2022-10-13T00:03:41.915Z,15.80
2022-10-13T00:06:11.565Z,15.70
2022-10-13T00:08:39.885Z,15.70
2022-10-13T00:11:14.120Z,15.70
2022-10-13T00:13:42.319Z,15.70
2022-10-13T00:16:11.826Z,15.70
2022-10-13T00:18:39.387Z,15.70
2022-10-13T00:21:13.108Z,15.70
2022-10-13T00:23:41.494Z,15.70
2022-10-13T00:26:13.469Z,15.70
2022-10-13T00:28:41.156Z,15.70
2022-10-13T00:31:22.851Z,15.70
2022-10-13T00:33:50.870Z,15.80
2022-10-13T00:36:19.811Z,15.80
2022-10-13T00:38:47.293Z,15.80
2022-10-13T00:41:15.279Z,15.80
2022-10-13T00:43:54.151Z,15.80
2022-10-13T00:46:23.209Z,15.80
2022-10-13T00:49:23.455Z,15.80
2022-10-13T00:51:51.266Z,15.80
2022-10-13T00:54:24.745Z,15.80
2022-10-13T00:56:53.400Z,15.80
2022-10-13T00:59:24.703Z,15.80
2022-10-13T01:01:54.444Z,15.80
2022-10-13T01:04:25.650Z,15.80
2022-10-13T01:06:54.913Z,15.90
2022-10-13T01:09:22.347Z,15.80
2022-10-13T01:12:14.093Z,15.80
2022-10-13T01:14:53.780Z,15.80
2022-10-13T01:17:41.415Z,15.80
2022-10-13T01:20:30.148Z,15.80
2022-10-13T01:23:09.422Z,15.70
2022-10-13T01:25:58.538Z,15.80
2022-10-13T01:29:01.886Z,15.70
2022-10-13T01:31:42.127Z,15.70
2022-10-13T01:34:20.964Z,15.70
2022-10-13T01:36:59.581Z,15.70
2022-10-13T01:39:40.237Z,15.70
2022-10-13T01:42:19.578Z,15.70
2022-10-13T01:44:53.115Z,15.70
2022-10-13T01:47:22.109Z,15.70
2022-10-13T01:49:52.969Z,15.70
2022-10-13T01:52:22.710Z,15.70
2022-10-13T01:54:54.179Z,15.70
2022-10-13T01:57:34.610Z,15.70
2022-10-13T02:00:13.430Z,15.70
2022-10-13T02:02:52.114Z,15.60
2022-10-13T02:05:49.052Z,15.60
2022-10-13T02:08:36.701Z,15.60
2022-10-13T02:11:12.966Z,15.60
2022-10-13T02:13:50.046Z,15.60
2022-10-13T02:16:28.849Z,15.60
2022-10-13T02:18:57.000Z,15.60
2022-10-13T02:21:24.846Z,15.60
2022-10-13T02:23:55.274Z,15.50
2022-10-13T02:26:22.639Z,15.50
2022-10-13T02:28:58.059Z,15.50
2022-10-13T02:31:25.542Z,15.50
2022-10-13T02:33:52.932Z,15.50
2022-10-13T02:36:20.462Z,15.50
2022-10-13T02:38:47.890Z,15.50
2022-10-13T02:41:15.359Z,15.50
2022-10-13T02:43:42.731Z,15.50
2022-10-13T02:46:10.163Z,15.50
2022-10-13T02:48:37.559Z,15.50
2022-10-13T02:51:05.055Z,15.50
2022-10-13T02:53:32.445Z,15.50
2022-10-13T02:55:59.910Z,15.50
2022-10-13T02:58:28.498Z,15.50
2022-10-13T03:01:04.656Z,15.50
2022-10-13T03:03:32.058Z,15.50
2022-10-13T03:05:59.540Z,15.50
2022-10-13T03:08:27.265Z,15.50
2022-10-13T03:10:54.717Z,15.50
2022-10-13T03:13:22.093Z,15.50
2022-10-13T03:15:49.849Z,15.50
2022-10-13T03:18:17.306Z,15.50
2022-10-13T03:20:44.882Z,15.50
2022-10-13T03:23:12.248Z,15.50
2022-10-13T03:25:39.636Z,15.40
2022-10-13T03:28:07.000Z,15.50
2022-10-13T03:30:34.494Z,15.50
2022-10-13T03:33:01.971Z,15.50
2022-10-13T03:35:29.435Z,15.50
2022-10-13T03:37:56.809Z,15.50
2022-10-13T03:40:25.433Z,15.40
2022-10-13T03:42:52.835Z,15.40
2022-10-13T03:45:20.297Z,15.40
2022-10-13T03:47:47.668Z,15.40
2022-10-13T03:50:15.029Z,15.30
2022-10-13T03:52:42.426Z,15.40
2022-10-13T03:55:10.001Z,15.40
2022-10-13T03:57:37.511Z,15.40
2022-10-13T04:00:08.622Z,15.40
2022-10-13T04:02:39.971Z,15.40
2022-10-13T04:05:07.635Z,15.40
2022-10-13T04:07:35.073Z,15.40
2022-10-13T04:10:11.245Z,15.30
2022-10-13T04:12:40.793Z,15.40
2022-10-13T04:15:08.833Z,15.40
2022-10-13T04:17:36.217Z,15.40
2022-10-13T04:20:04.020Z,15.40
2022-10-13T04:22:31.471Z,15.40
2022-10-13T04:24:58.904Z,15.40
2022-10-13T04:27:27.540Z,15.40
2022-10-13T04:29:55.138Z,15.40
2022-10-13T04:32:23.022Z,15.40
2022-10-13T04:34:50.598Z,15.40
2022-10-13T04:37:17.987Z,15.40
2022-10-13T04:39:45.517Z,15.40
2022-10-13T04:42:13.157Z,15.40
2022-10-13T04:44:40.555Z,15.40
2022-10-13T04:47:09.471Z,15.40
2022-10-13T04:49:37.243Z,15.30
2022-10-13T04:52:04.671Z,15.30
2022-10-13T04:54:32.076Z,15.30
2022-10-13T04:56:59.468Z,15.30
2022-10-13T04:59:26.903Z,15.40
2022-10-13T05:01:54.350Z,15.30
2022-10-13T05:04:21.775Z,15.30
2022-10-13T05:07:15.842Z,15.30
2022-10-13T05:09:36.498Z,15.30
2022-10-13T05:12:11.102Z,15.30
2022-10-13T05:14:38.573Z,15.30
2022-10-13T05:17:08.234Z,15.30
2022-10-13T05:19:35.670Z,15.30
2022-10-13T05:22:03.091Z,15.30
2022-10-13T05:24:36.721Z,15.30
2022-10-13T05:27:10.486Z,15.30
2022-10-13T05:29:39.179Z,15.30
2022-10-13T05:32:06.912Z,15.30
2022-10-13T05:34:34.378Z,15.30
2022-10-13T05:37:01.806Z,15.30
2022-10-13T05:39:29.217Z,15.40
2022-10-13T05:41:56.608Z,15.40
2022-10-13T05:44:24.623Z,15.40
2022-10-13T05:46:56.924Z,15.30
2022-10-13T05:49:24.715Z,15.40
2022-10-13T05:51:55.491Z,15.40
2022-10-13T05:54:33.689Z,15.30
2022-10-13T05:57:32.715Z,15.30
2022-10-13T06:00:10.259Z,15.30
2022-10-13T06:03:11.114Z,15.30
2022-10-13T06:05:45.104Z,15.30
2022-10-13T06:08:12.821Z,15.30
2022-10-13T06:10:42.126Z,15.30
2022-10-13T06:13:09.790Z,15.30
2022-10-13T06:15:37.162Z,15.20
2022-10-13T06:18:10.364Z,15.20
2022-10-13T06:20:37.921Z,15.20
2022-10-13T06:23:05.480Z,15.20
2022-10-13T06:25:33.022Z,15.20
2022-10-13T06:28:00.623Z,15.30
2022-10-13T06:30:28.475Z,15.20
2022-10-13T06:32:56.165Z,15.20
2022-10-13T06:35:23.694Z,15.20
2022-10-13T06:37:53.104Z,15.20
2022-10-13T06:40:20.565Z,15.20
2022-10-13T06:42:51.463Z,15.20
2022-10-13T06:45:22.896Z,15.20
2022-10-13T06:47:52.330Z,15.20
2022-10-13T06:50:19.965Z,15.20
2022-10-13T06:52:47.423Z,15.20
2022-10-13T06:55:14.967Z,15.20
2022-10-13T06:57:42.367Z,15.20
2022-10-13T07:00:10.740Z,15.20
2022-10-13T07:02:38.144Z,15.20
2022-10-13T07:05:05.938Z,15.10
2022-10-13T07:07:33.203Z,15.20
2022-10-13T07:10:00.634Z,15.20
2022-10-13T07:12:28.024Z,15.20
2022-10-13T07:14:55.479Z,15.20
2022-10-13T07:17:23.121Z,15.20
2022-10-13T07:19:51.436Z,15.20
2022-10-13T07:22:20.234Z,15.20
2022-10-13T07:24:47.609Z,15.20
2022-10-13T07:27:14.962Z,15.30
2022-10-13T07:29:42.416Z,15.30
2022-10-13T07:32:09.849Z,15.30
2022-10-13T07:34:37.229Z,15.30
2022-10-13T07:37:05.058Z,15.30
2022-10-13T07:39:32.850Z,15.30
2022-10-13T07:42:00.347Z,15.40
2022-10-13T07:44:27.870Z,15.30
2022-10-13T07:46:55.328Z,15.40
2022-10-13T07:49:23.297Z,15.40
2022-10-13T07:51:50.673Z,15.40
2022-10-13T07:54:23.690Z,15.50
2022-10-13T07:56:56.116Z,15.40
2022-10-13T07:59:23.654Z,15.40
2022-10-13T08:01:51.232Z,15.50
2022-10-13T08:04:18.733Z,15.50
2022-10-13T08:06:47.027Z,15.50
2022-10-13T08:09:14.524Z,15.50
2022-10-13T08:11:41.912Z,15.40
2022-10-13T08:14:11.892Z,15.40
2022-10-13T08:16:40.365Z,15.50
2022-10-13T08:19:07.842Z,15.50
2022-10-13T08:24:22.661Z,15.50
2022-10-13T08:26:51.110Z,15.50
2022-10-13T08:29:23.491Z,15.60
2022-10-13T08:31:55.290Z,15.60
2022-10-13T08:34:24.113Z,15.60
2022-10-13T08:36:54.400Z,15.60
2022-10-13T08:39:23.675Z,15.60
2022-10-13T08:41:52.191Z,15.60
2022-10-13T08:45:06.293Z,15.70
2022-10-13T08:47:35.681Z,15.70
2022-10-13T08:50:12.706Z,15.70
2022-10-13T08:52:50.241Z,15.70
2022-10-13T08:55:36.352Z,15.70
2022-10-13T08:58:17.044Z,15.80
2022-10-13T09:00:44.897Z,15.90
2022-10-13T09:03:25.979Z,15.90
2022-10-13T09:06:11.090Z,16.00
2022-10-13T09:08:48.654Z,16.10
2022-10-13T09:11:16.185Z,16.10
2022-10-13T09:13:43.745Z,16.20
2022-10-13T09:16:11.560Z,16.30
2022-10-13T09:18:39.226Z,16.30
2022-10-13T09:21:18.912Z,16.40
2022-10-13T09:23:46.626Z,16.50
2022-10-13T09:26:20.982Z,16.50
2022-10-13T09:28:49.178Z,16.60
2022-10-13T09:31:17.073Z,16.60
2022-10-13T09:33:46.080Z,16.60
2022-10-13T09:36:15.928Z,16.70
2022-10-13T09:39:15.690Z,16.80
2022-10-13T09:41:45.281Z,16.90
2022-10-13T09:44:28.683Z,16.90
2022-10-13T09:47:04.219Z,17.00
2022-10-13T09:49:43.582Z,17.00
2022-10-13T09:52:18.423Z,17.10
2022-10-13T09:54:51.095Z,17.20
2022-10-13T09:57:48.618Z,17.30
2022-10-13T10:00:25.573Z,17.40
2022-10-13T10:02:55.831Z,17.40
2022-10-13T10:05:28.835Z,17.50
2022-10-13T10:08:16.842Z,17.50
2022-10-13T10:10:44.782Z,17.60
2022-10-13T10:13:13.846Z,17.70
2022-10-13T10:16:03.035Z,17.80
2022-10-13T10:18:42.795Z,17.90
2022-10-13T10:21:25.528Z,17.90
2022-10-13T10:24:28.509Z,18.10
2022-10-13T10:27:05.778Z,18.10
2022-10-13T10:29:39.004Z,18.10
2022-10-13T10:32:27.972Z,18.30
2022-10-13T10:35:11.942Z,18.40
2022-10-13T10:37:45.771Z,18.60
2022-10-13T10:40:34.373Z,18.70
2022-10-13T10:43:40.527Z,18.80
2022-10-13T10:46:18.100Z,19.00
2022-10-13T10:48:47.770Z,19.00
2022-10-13T10:51:15.622Z,19.10
2022-10-13T10:53:49.988Z,19.20
2022-10-13T10:56:35.728Z,19.30
2022-10-13T10:59:40.210Z,19.50
2022-10-13T11:02:07.765Z,19.60
2022-10-13T11:04:43.406Z,19.70
2022-10-13T11:07:24.370Z,19.90
2022-10-13T11:09:51.908Z,20.00
2022-10-13T11:12:19.806Z,20.10
2022-10-13T11:15:08.766Z,20.20
2022-10-13T11:17:38.067Z,20.30
2022-10-13T11:20:20.532Z,20.50
2022-10-13T11:23:08.183Z,20.60
2022-10-13T11:25:40.934Z,20.70
2022-10-13T11:28:48.996Z,20.80
2022-10-13T11:31:48.052Z,21.00
2022-10-13T11:34:31.243Z,21.20
2022-10-13T11:37:01.325Z,21.50
2022-10-13T11:40:12.268Z,21.70
2022-10-13T11:43:12.615Z,21.90
2022-10-13T11:46:01.805Z,22.10
2022-10-13T11:48:38.207Z,22.40
2022-10-13T11:51:28.192Z,22.60
2022-10-13T11:54:08.992Z,22.80
2022-10-13T11:56:50.912Z,22.90
2022-10-13T11:59:29.101Z,23.10
2022-10-13T12:02:19.155Z,23.10
2022-10-13T12:05:26.169Z,23.20
2022-10-13T12:07:57.244Z,23.20
2022-10-13T12:10:33.564Z,23.30
2022-10-13T12:13:02.634Z,23.30
2022-10-13T12:15:41.905Z,23.30
2022-10-13T12:18:38.245Z,23.30
2022-10-13T12:21:20.167Z,23.30
2022-10-13T12:23:49.057Z,23.30
2022-10-13T12:26:26.526Z,23.30
2022-10-13T12:29:05.078Z,23.40
2022-10-13T12:31:59.536Z,23.30
2022-10-13T12:34:34.258Z,23.30
2022-10-13T12:37:29.554Z,23.20
2022-10-13T12:39:58.426Z,23.20
2022-10-13T12:42:32.806Z,23.20
2022-10-13T12:45:01.926Z,23.20
2022-10-13T12:47:59.113Z,23.10
2022-10-13T12:50:29.560Z,23.00
2022-10-13T12:53:20.469Z,22.90
2022-10-13T12:55:58.660Z,22.80
2022-10-13T12:58:32.130Z,22.70
2022-10-13T13:01:13.128Z,22.60
2022-10-13T13:03:42.765Z,22.50
2022-10-13T13:06:24.842Z,22.30
2022-10-13T13:09:18.338Z,22.20
2022-10-13T13:11:45.972Z,22.10
2022-10-13T13:14:50.938Z,22.00
2022-10-13T13:17:38.420Z,21.90
2022-10-13T13:20:45.428Z,21.70
2022-10-13T13:23:13.307Z,21.60
2022-10-13T13:25:40.791Z,21.50
2022-10-13T13:28:13.743Z,21.50
2022-10-13T13:30:41.946Z,21.40
2022-10-13T13:33:12.877Z,21.40
2022-10-13T13:35:40.233Z,21.30
2022-10-13T13:38:09.652Z,21.30
2022-10-13T13:40:37.130Z,21.20
2022-10-13T13:43:04.513Z,21.10
2022-10-13T13:45:33.937Z,21.10
2022-10-13T13:48:02.828Z,21.10
2022-10-13T13:50:35.973Z,21.10
2022-10-13T13:53:04.896Z,21.10
2022-10-13T13:55:32.677Z,21.00
2022-10-13T13:58:01.123Z,21.00
2022-10-13T14:00:28.590Z,21.00
2022-10-13T14:02:57.632Z,21.00
2022-10-13T14:05:25.225Z,21.00
2022-10-13T14:07:57.777Z,21.00
2022-10-13T14:10:26.326Z,21.00
2022-10-13T14:12:53.809Z,21.10
2022-10-13T14:15:23.415Z,21.10
2022-10-13T14:17:54.288Z,21.20
2022-10-13T14:20:22.290Z,21.20
2022-10-13T14:22:49.817Z,21.30
2022-10-13T14:25:18.058Z,21.30
2022-10-13T14:27:48.230Z,21.40
2022-10-13T14:30:15.719Z,21.40
2022-10-13T14:32:43.329Z,21.50
2022-10-13T14:35:10.930Z,21.60
2022-10-13T14:37:38.783Z,21.70
2022-10-13T14:40:07.005Z,21.70
2022-10-13T14:42:34.413Z,21.80
2022-10-13T14:45:06.483Z,21.70
2022-10-13T14:47:33.934Z,21.80
2022-10-13T14:50:01.868Z,21.80
2022-10-13T14:52:29.382Z,21.80
2022-10-13T14:54:56.880Z,21.80
2022-10-13T14:57:24.334Z,21.80
2022-10-13T14:59:51.788Z,21.70
2022-10-13T15:02:19.251Z,21.70
2022-10-13T15:04:53.152Z,21.70
2022-10-13T15:07:20.837Z,21.80
2022-10-13T15:10:05.809Z,21.90
2022-10-13T15:12:34.175Z,21.90
2022-10-13T15:15:01.871Z,21.80
2022-10-13T15:17:31.582Z,21.90
2022-10-13T15:19:59.239Z,21.90
2022-10-13T15:22:26.755Z,22.00
2022-10-13T15:24:54.193Z,22.10
2022-10-13T15:27:21.661Z,22.10
2022-10-13T15:29:49.131Z,22.00
2022-10-13T15:32:18.628Z,22.00
2022-10-13T15:34:50.829Z,21.90
2022-10-13T15:37:18.478Z,22.00
2022-10-13T15:39:46.112Z,21.90
2022-10-13T15:42:13.625Z,21.90
2022-10-13T15:45:08.194Z,21.80
2022-10-13T15:47:28.440Z,21.70
2022-10-13T15:49:56.313Z,21.60
2022-10-13T15:52:24.216Z,21.60
2022-10-13T15:54:51.985Z,21.50
2022-10-13T15:57:19.401Z,21.40
2022-10-13T15:59:47.219Z,21.30
2022-10-13T16:02:14.679Z,21.30
2022-10-13T16:04:42.032Z,21.20
2022-10-13T16:07:09.440Z,21.10
2022-10-13T16:09:36.905Z,21.00
2022-10-13T16:12:04.485Z,21.00
2022-10-13T16:14:32.033Z,20.90
2022-10-13T16:16:59.435Z,20.80
2022-10-13T16:19:26.813Z,20.70
2022-10-13T16:21:54.349Z,20.70
2022-10-13T16:24:21.898Z,20.60
2022-10-13T16:26:49.319Z,20.50
2022-10-13T16:29:16.880Z,20.40
2022-10-13T16:31:45.068Z,20.30
2022-10-13T16:34:12.440Z,20.20
2022-10-13T16:36:39.866Z,20.20
2022-10-13T16:39:07.278Z,20.10
2022-10-13T16:41:36.242Z,20.00
2022-10-13T16:44:03.799Z,19.90
2022-10-13T16:46:33.205Z,19.80
2022-10-13T16:49:01.006Z,19.80
2022-10-13T16:51:28.833Z,19.70
2022-10-13T16:54:03.639Z,19.60
2022-10-13T16:56:32.324Z,19.50
2022-10-13T16:59:01.757Z,19.50
2022-10-13T17:01:30.480Z,19.40
2022-10-13T17:03:58.379Z,19.30
2022-10-13T17:06:27.840Z,19.20
2022-10-13T17:08:57.629Z,19.20
2022-10-13T17:11:28.723Z,19.10
2022-10-13T17:13:57.954Z,19.00
2022-10-13T17:16:26.207Z,18.90
2022-10-13T17:18:54.349Z,18.90
2022-10-13T17:21:22.238Z,18.80
2022-10-13T17:23:50.100Z,18.70
2022-10-13T17:26:18.946Z,18.70
2022-10-13T17:28:47.128Z,18.60
2022-10-13T17:31:22.442Z,18.50
2022-10-13T17:33:50.722Z,18.50
2022-10-13T17:36:24.746Z,18.30
2022-10-13T17:38:53.755Z,18.30
2022-10-13T17:41:21.954Z,18.20
2022-10-13T17:43:51.435Z,18.10
2022-10-13T17:46:37.289Z,18.10
2022-10-13T17:49:06.670Z,18.00
2022-10-13T17:51:34.704Z,17.90
2022-10-13T17:54:02.145Z,17.80
2022-10-13T17:56:30.019Z,17.80
2022-10-13T17:58:58.724Z,17.70
2022-10-13T18:01:32.230Z,17.60
2022-10-13T18:04:02.191Z,17.50
2022-10-13T18:06:38.834Z,17.50
2022-10-13T18:09:09.121Z,17.40
2022-10-13T18:11:38.009Z,17.40
2022-10-13T18:14:06.427Z,17.30
2022-10-13T18:16:34.735Z,17.30
2022-10-13T18:19:02.841Z,17.20
2022-10-13T18:21:30.932Z,17.10
2022-10-13T18:24:00.872Z,17.10
2022-10-13T18:26:37.204Z,17.00
2022-10-13T18:29:06.092Z,16.90
2022-10-13T18:31:36.740Z,16.90
2022-10-13T18:34:07.037Z,16.80
2022-10-13T18:36:38.903Z,16.80
2022-10-13T18:39:16.616Z,16.70
2022-10-13T18:41:46.378Z,16.70
2022-10-13T18:44:14.297Z,16.60
2022-10-13T18:46:41.821Z,16.50
2022-10-13T18:49:13.223Z,16.50
2022-10-13T18:51:42.656Z,16.50
2022-10-13T18:54:10.230Z,16.40
2022-10-13T18:56:38.004Z,16.40
2022-10-13T18:59:06.920Z,16.30
2022-10-13T19:01:36.239Z,16.20
2022-10-13T19:04:04.365Z,16.20
2022-10-13T19:06:32.723Z,16.10
2022-10-13T19:09:03.390Z,16.00
2022-10-13T19:11:31.310Z,16.00
2022-10-13T19:13:59.875Z,16.00
2022-10-13T19:16:29.423Z,15.90
2022-10-13T19:18:57.309Z,15.90
2022-10-13T19:21:25.042Z,15.80
2022-10-13T19:23:52.568Z,15.80
2022-10-13T19:26:31.112Z,15.70
2022-10-13T19:29:09.794Z,15.70
2022-10-13T19:31:38.745Z,15.70
2022-10-13T19:34:10.719Z,15.60
2022-10-13T19:36:41.946Z,15.60
2022-10-13T19:39:21.810Z,15.50
2022-10-13T19:41:50.668Z,15.50
2022-10-13T19:44:19.522Z,15.50
2022-10-13T19:46:48.011Z,15.50
2022-10-13T19:49:18.034Z,15.40
2022-10-13T19:51:46.817Z,15.40
2022-10-13T19:54:14.497Z,15.30
2022-10-13T19:56:47.292Z,15.30
2022-10-13T19:59:15.603Z,15.30
2022-10-13T20:01:43.251Z,15.30
2022-10-13T20:04:14.599Z,15.20
2022-10-13T20:06:44.620Z,15.20
2022-10-13T20:09:12.119Z,15.10
2022-10-13T20:11:39.806Z,15.10
2022-10-13T20:14:07.248Z,15.10
2022-10-13T20:16:34.918Z,15.10
2022-10-13T20:19:02.647Z,15.00
2022-10-13T20:21:30.138Z,15.00
2022-10-13T20:23:57.802Z,15.00
2022-10-13T20:26:26.088Z,14.90
2022-10-13T20:28:54.358Z,14.90
2022-10-13T20:31:23.018Z,14.90
2022-10-13T20:33:55.829Z,14.90
2022-10-13T20:36:24.748Z,14.80
2022-10-13T20:38:52.553Z,14.80
2022-10-13T20:41:24.765Z,14.80
2022-10-13T20:43:54.084Z,14.70
2022-10-13T20:46:23.561Z,14.70
2022-10-13T20:51:40.708Z,14.70
2022-10-13T20:54:08.385Z,14.60
2022-10-13T20:56:35.919Z,14.60
2022-10-13T20:59:05.374Z,14.50
2022-10-13T21:01:33.207Z,14.50
2022-10-13T21:04:00.848Z,14.50
2022-10-13T21:06:28.325Z,14.40
2022-10-13T21:08:59.463Z,14.40
2022-10-13T21:11:26.954Z,14.40
2022-10-13T21:13:54.409Z,14.40
2022-10-13T21:16:27.558Z,14.40
2022-10-13T21:18:58.921Z,14.30
2022-10-13T21:21:31.760Z,14.30
2022-10-13T21:24:01.093Z,14.30
2022-10-13T21:26:30.629Z,14.20
2022-10-13T21:28:58.654Z,14.20
2022-10-13T21:31:26.832Z,14.20
2022-10-13T21:33:55.256Z,14.20
2022-10-13T21:36:26.377Z,14.20
2022-10-13T21:38:56.341Z,14.00
2022-10-13T21:41:24.295Z,14.10
2022-10-13T21:43:52.192Z,14.10
2022-10-13T21:46:26.899Z,14.00
2022-10-13T21:48:56.752Z,14.00
2022-10-13T21:51:30.526Z,14.00
2022-10-13T21:54:10.056Z,13.90
2022-10-13T21:56:38.019Z,13.90
2022-10-13T21:59:06.045Z,13.90
2022-10-13T22:01:34.195Z,13.80
2022-10-13T22:04:02.949Z,13.80
2022-10-13T22:06:32.216Z,13.80
2022-10-13T22:09:01.782Z,13.80
2022-10-13T22:11:31.373Z,13.70
2022-10-13T22:13:59.654Z,13.70
2022-10-13T22:16:33.649Z,13.70
2022-10-13T22:19:01.638Z,13.70
2022-10-13T22:21:32.089Z,13.70
2022-10-13T22:24:02.356Z,13.70
2022-10-13T22:26:32.789Z,13.70
2022-10-13T22:29:01.622Z,13.60
2022-10-13T22:31:32.629Z,13.60
2022-10-13T22:34:04.574Z,13.60
2022-10-13T22:36:32.056Z,13.60
2022-10-13T22:39:02.836Z,13.60
2022-10-13T22:41:32.031Z,13.60
2022-10-13T22:44:00.268Z,13.50
2022-10-13T22:46:30.737Z,13.50
2022-10-13T22:48:58.588Z,13.50
2022-10-13T22:51:28.313Z,13.50
2022-10-13T22:53:56.335Z,13.50
2022-10-13T22:56:28.356Z,13.50
2022-10-13T22:59:01.334Z,13.50
2022-10-13T23:01:29.063Z,13.50
2022-10-13T23:03:58.279Z,13.50
2022-10-13T23:06:28.896Z,13.50
2022-10-13T23:08:59.409Z,13.40
2022-10-13T23:11:27.138Z,13.40
2022-10-13T23:13:55.305Z,13.40
2022-10-13T23:16:27.543Z,13.50
2022-10-13T23:18:55.006Z,13.50
2022-10-13T23:21:28.219Z,13.50
2022-10-13T23:23:57.725Z,13.40
2022-10-13T23:26:25.952Z,13.40
2022-10-13T23:28:55.833Z,13.40
2022-10-13T23:31:23.955Z,13.40
2022-10-13T23:33:51.615Z,13.40
2022-10-13T23:36:23.739Z,13.40
2022-10-13T23:39:01.992Z,13.40
2022-10-13T23:41:30.053Z,13.40
2022-10-13T23:43:57.581Z,13.40
2022-10-13T23:46:25.177Z,13.40
2022-10-13T23:48:52.692Z,13.30
2022-10-13T23:51:23.171Z,13.40
2022-10-13T23:53:51.895Z,13.30
2022-10-13T23:56:21.234Z,13.30
2022-10-13T23:58:49.104Z,13.30
